sensor_id;sensor_type;location;lat;lon;timestamp;P1;durP1;ratioP1;P2;durP2;ratioP2
33579;SDS011;19909;43.644;-79.438;2022-07-21T00:01:55;1.17;;;1.08;;
33579;SDS011;19909;43.644;-79.438;2022-07-21T00:04:21;1.17;;;1.08;;
33579;SDS011;19909;43.644;-79.438;2022-07-21T00:06:47;1.10;;;1.00;;
33579;SDS011;19909;43.644;-79.438;2022-07-21T00:09:14;1.40;;;1.30;;
33579;SDS011;19909;43.644;-79.438;2022-07-21T00:11:41;1.35;;;1.25;;
33579;SDS011;19909;43.644;-79.438;2022-07-21T00:14:08;1.08;;;0.98;;
33579;SDS011;19909;43.644;-79.438;2022-07-21T00:16:36;1.15;;;1.05;;
33579;SDS011;19909;43.644;-79.438;2022-07-21T00:19:02;1.30;;;1.00;;
33579;SDS011;19909;43.644;-79.438;2022-07-21T00:21:28;1.00;;;0.90;;
33579;SDS011;19909;43.644;-79.438;2022-07-21T00:23:54;1.20;;;1.10;;
33579;SDS011;19909;43.644;-79.438;2022-07-21T00:26:21;0.90;;;0.90;;
33579;SDS011;19909;43.644;-79.438;2022-07-21T00:28:47;1.20;;;1.10;;
33579;SDS011;19909;43.644;-79.438;2022-07-21T00:31:14;1.30;;;1.20;;
33579;SDS011;19909;43.644;-79.438;2022-07-21T00:33:40;1.20;;;0.93;;
33579;SDS011;19909;43.644;-79.438;2022-07-21T00:36:06;1.20;;;1.10;;
33579;SDS011;19909;43.644;-79.438;2022-07-21T00:41:04;1.20;;;1.10;;
33579;SDS011;19909;43.644;-79.438;2022-07-21T00:43:31;1.10;;;1.00;;
33579;SDS011;19909;43.644;-79.438;2022-07-21T00:45:57;1.20;;;1.08;;
33579;SDS011;19909;43.644;-79.438;2022-07-21T00:48:23;1.00;;;0.90;;
33579;SDS011;19909;43.644;-79.438;2022-07-21T00:50:50;1.20;;;1.10;;
33579;SDS011;19909;43.644;-79.438;2022-07-21T00:53:16;1.10;;;1.00;;
33579;SDS011;19909;43.644;-79.438;2022-07-21T00:55:43;0.88;;;0.88;;
33579;SDS011;19909;43.644;-79.438;2022-07-21T00:58:09;1.13;;;1.00;;
33579;SDS011;19909;43.644;-79.438;2022-07-21T01:00:36;1.05;;;0.98;;
33579;SDS011;19909;43.644;-79.438;2022-07-21T01:03:02;1.13;;;1.02;;
33579;SDS011;19909;43.644;-79.438;2022-07-21T01:05:28;1.02;;;0.90;;
33579;SDS011;19909;43.644;-79.438;2022-07-21T01:07:55;1.02;;;0.98;;
33579;SDS011;19909;43.644;-79.438;2022-07-21T01:10:27;0.70;;;0.70;;
33579;SDS011;19909;43.644;-79.438;2022-07-21T01:12:54;1.00;;;0.90;;
33579;SDS011;19909;43.644;-79.438;2022-07-21T01:15:22;1.27;;;1.15;;
33579;SDS011;19909;43.644;-79.438;2022-07-21T01:17:49;1.20;;;1.10;;
33579;SDS011;19909;43.644;-79.438;2022-07-21T01:20:17;1.20;;;1.10;;
33579;SDS011;19909;43.644;-79.438;2022-07-21T01:22:47;1.35;;;1.00;;
33579;SDS011;19909;43.644;-79.438;2022-07-21T01:25:15;0.90;;;0.90;;
33579;SDS011;19909;43.644;-79.438;2022-07-21T01:27:42;1.13;;;1.02;;
33579;SDS011;19909;43.644;-79.438;2022-07-21T01:30:09;1.10;;;1.00;;
33579;SDS011;19909;43.644;-79.438;2022-07-21T01:35:05;1.27;;;1.15;;
33579;SDS011;19909;43.644;-79.438;2022-07-21T01:37:34;1.20;;;1.10;;
33579;SDS011;19909;43.644;-79.438;2022-07-21T01:40:03;1.42;;;1.27;;
33579;SDS011;19909;43.644;-79.438;2022-07-21T01:42:48;1.45;;;1.35;;
33579;SDS011;19909;43.644;-79.438;2022-07-21T01:45:14;1.10;;;1.00;;
33579;SDS011;19909;43.644;-79.438;2022-07-21T01:47:40;1.30;;;1.20;;
33579;SDS011;19909;43.644;-79.438;2022-07-21T01:50:08;1.15;;;1.05;;
33579;SDS011;19909;43.644;-79.438;2022-07-21T01:52:39;1.33;;;0.90;;
33579;SDS011;19909;43.644;-79.438;2022-07-21T01:55:07;1.63;;;1.40;;
33579;SDS011;19909;43.644;-79.438;2022-07-21T01:57:33;1.33;;;1.20;;
33579;SDS011;19909;43.644;-79.438;2022-07-21T01:59:59;1.10;;;1.00;;
33579;SDS011;19909;43.644;-79.438;2022-07-21T02:02:25;1.58;;;1.23;;
33579;SDS011;19909;43.644;-79.438;2022-07-21T02:04:52;1.25;;;1.15;;
33579;SDS011;19909;43.644;-79.438;2022-07-21T02:07:18;1.40;;;1.20;;
33579;SDS011;19909;43.644;-79.438;2022-07-21T02:09:44;1.10;;;1.00;;
33579;SDS011;19909;43.644;-79.438;2022-07-21T02:12:10;1.02;;;0.93;;
33579;SDS011;19909;43.644;-79.438;2022-07-21T02:14:37;1.27;;;1.00;;
33579;SDS011;19909;43.644;-79.438;2022-07-21T02:17:03;1.27;;;1.10;;
33579;SDS011;19909;43.644;-79.438;2022-07-21T02:19:29;1.10;;;0.90;;
33579;SDS011;19909;43.644;-79.438;2022-07-21T02:21:56;1.10;;;1.00;;
33579;SDS011;19909;43.644;-79.438;2022-07-21T02:24:22;1.63;;;1.05;;
33579;SDS011;19909;43.644;-79.438;2022-07-21T02:26:48;2.63;;;1.17;;
33579;SDS011;19909;43.644;-79.438;2022-07-21T02:29:15;0.98;;;0.90;;
33579;SDS011;19909;43.644;-79.438;2022-07-21T02:31:41;0.73;;;0.73;;
33579;SDS011;19909;43.644;-79.438;2022-07-21T02:34:07;0.85;;;0.85;;
33579;SDS011;19909;43.644;-79.438;2022-07-21T02:36:33;1.10;;;0.80;;
33579;SDS011;19909;43.644;-79.438;2022-07-21T02:39:00;0.98;;;0.75;;
33579;SDS011;19909;43.644;-79.438;2022-07-21T02:41:27;0.70;;;0.70;;
33579;SDS011;19909;43.644;-79.438;2022-07-21T02:43:53;1.10;;;1.00;;
33579;SDS011;19909;43.644;-79.438;2022-07-21T02:46:19;0.90;;;0.80;;
33579;SDS011;19909;43.644;-79.438;2022-07-21T02:48:45;0.55;;;0.50;;
33579;SDS011;19909;43.644;-79.438;2022-07-21T02:51:12;0.70;;;0.70;;
33579;SDS011;19909;43.644;-79.438;2022-07-21T02:53:38;0.60;;;0.50;;
33579;SDS011;19909;43.644;-79.438;2022-07-21T02:56:04;0.65;;;0.60;;
33579;SDS011;19909;43.644;-79.438;2022-07-21T02:58:31;0.85;;;0.60;;
33579;SDS011;19909;43.644;-79.438;2022-07-21T03:00:58;0.63;;;0.60;;
33579;SDS011;19909;43.644;-79.438;2022-07-21T03:03:30;0.73;;;0.60;;
33579;SDS011;19909;43.644;-79.438;2022-07-21T03:05:59;0.50;;;0.50;;
33579;SDS011;19909;43.644;-79.438;2022-07-21T03:08:26;1.05;;;0.80;;
33579;SDS011;19909;43.644;-79.438;2022-07-21T03:10:54;0.60;;;0.50;;
33579;SDS011;19909;43.644;-79.438;2022-07-21T03:13:21;0.63;;;0.50;;
33579;SDS011;19909;43.644;-79.438;2022-07-21T03:15:48;1.00;;;0.90;;
33579;SDS011;19909;43.644;-79.438;2022-07-21T03:23:07;1.02;;;0.82;;
33579;SDS011;19909;43.644;-79.438;2022-07-21T03:25:34;0.60;;;0.60;;
33579;SDS011;19909;43.644;-79.438;2022-07-21T03:28:04;0.68;;;0.50;;
33579;SDS011;19909;43.644;-79.438;2022-07-21T03:30:31;0.60;;;0.50;;
33579;SDS011;19909;43.644;-79.438;2022-07-21T03:32:58;0.63;;;0.43;;
33579;SDS011;19909;43.644;-79.438;2022-07-21T03:35:25;0.65;;;0.65;;
33579;SDS011;19909;43.644;-79.438;2022-07-21T03:37:52;0.80;;;0.55;;
33579;SDS011;19909;43.644;-79.438;2022-07-21T03:45:15;0.90;;;0.43;;
33579;SDS011;19909;43.644;-79.438;2022-07-21T03:47:41;0.50;;;0.30;;
33579;SDS011;19909;43.644;-79.438;2022-07-21T03:50:07;0.63;;;0.43;;
33579;SDS011;19909;43.644;-79.438;2022-07-21T03:52:37;0.63;;;0.43;;
33579;SDS011;19909;43.644;-79.438;2022-07-21T03:55:04;0.65;;;0.40;;
33579;SDS011;19909;43.644;-79.438;2022-07-21T03:57:43;0.60;;;0.50;;
33579;SDS011;19909;43.644;-79.438;2022-07-21T04:00:13;0.70;;;0.40;;
33579;SDS011;19909;43.644;-79.438;2022-07-21T04:02:41;0.88;;;0.60;;
33579;SDS011;19909;43.644;-79.438;2022-07-21T04:05:08;0.50;;;0.40;;
33579;SDS011;19909;43.644;-79.438;2022-07-21T04:07:36;0.82;;;0.55;;
33579;SDS011;19909;43.644;-79.438;2022-07-21T04:10:04;0.77;;;0.60;;
33579;SDS011;19909;43.644;-79.438;2022-07-21T04:12:30;0.60;;;0.60;;
33579;SDS011;19909;43.644;-79.438;2022-07-21T04:14:57;0.68;;;0.43;;
33579;SDS011;19909;43.644;-79.438;2022-07-21T04:17:24;0.98;;;0.60;;
33579;SDS011;19909;43.644;-79.438;2022-07-21T04:19:50;0.50;;;0.50;;
33579;SDS011;19909;43.644;-79.438;2022-07-21T04:22:16;0.73;;;0.52;;
33579;SDS011;19909;43.644;-79.438;2022-07-21T04:24:45;0.70;;;0.30;;
33579;SDS011;19909;43.644;-79.438;2022-07-21T04:27:12;0.70;;;0.50;;
33579;SDS011;19909;43.644;-79.438;2022-07-21T04:29:38;0.65;;;0.55;;
33579;SDS011;19909;43.644;-79.438;2022-07-21T04:32:04;0.45;;;0.30;;
33579;SDS011;19909;43.644;-79.438;2022-07-21T04:34:31;0.80;;;0.52;;
33579;SDS011;19909;43.644;-79.438;2022-07-21T04:36:58;1.20;;;0.50;;
33579;SDS011;19909;43.644;-79.438;2022-07-21T04:39:24;0.55;;;0.43;;
33579;SDS011;19909;43.644;-79.438;2022-07-21T04:41:51;0.70;;;0.30;;
33579;SDS011;19909;43.644;-79.438;2022-07-21T04:44:17;0.70;;;0.50;;
33579;SDS011;19909;43.644;-79.438;2022-07-21T04:46:43;0.60;;;0.30;;
33579;SDS011;19909;43.644;-79.438;2022-07-21T04:49:09;0.52;;;0.40;;
33579;SDS011;19909;43.644;-79.438;2022-07-21T04:51:36;0.60;;;0.40;;
33579;SDS011;19909;43.644;-79.438;2022-07-21T04:54:02;0.77;;;0.38;;
33579;SDS011;19909;43.644;-79.438;2022-07-21T04:56:28;1.08;;;0.38;;
33579;SDS011;19909;43.644;-79.438;2022-07-21T04:58:55;0.45;;;0.32;;
33579;SDS011;19909;43.644;-79.438;2022-07-21T05:03:48;0.55;;;0.50;;
33579;SDS011;19909;43.644;-79.438;2022-07-21T05:06:14;0.57;;;0.40;;
33579;SDS011;19909;43.644;-79.438;2022-07-21T05:08:41;0.52;;;0.47;;
33579;SDS011;19909;43.644;-79.438;2022-07-21T05:11:07;0.75;;;0.50;;
33579;SDS011;19909;43.644;-79.438;2022-07-21T05:13:33;0.40;;;0.30;;
33579;SDS011;19909;43.644;-79.438;2022-07-21T05:15:59;0.50;;;0.40;;
33579;SDS011;19909;43.644;-79.438;2022-07-21T05:18:26;0.60;;;0.45;;
33579;SDS011;19909;43.644;-79.438;2022-07-21T05:20:52;0.35;;;0.30;;
33579;SDS011;19909;43.644;-79.438;2022-07-21T05:23:18;0.63;;;0.40;;
33579;SDS011;19909;43.644;-79.438;2022-07-21T05:25:44;0.43;;;0.32;;
33579;SDS011;19909;43.644;-79.438;2022-07-21T05:28:10;1.23;;;0.50;;
33579;SDS011;19909;43.644;-79.438;2022-07-21T05:30:37;0.63;;;0.47;;
33579;SDS011;19909;43.644;-79.438;2022-07-21T05:33:03;0.30;;;0.30;;
33579;SDS011;19909;43.644;-79.438;2022-07-21T05:35:30;0.30;;;0.30;;
33579;SDS011;19909;43.644;-79.438;2022-07-21T05:37:56;0.20;;;0.20;;
33579;SDS011;19909;43.644;-79.438;2022-07-21T05:40:22;0.28;;;0.28;;
33579;SDS011;19909;43.644;-79.438;2022-07-21T05:42:49;0.60;;;0.30;;
33579;SDS011;19909;43.644;-79.438;2022-07-21T05:47:41;0.40;;;0.40;;
33579;SDS011;19909;43.644;-79.438;2022-07-21T05:50:07;0.30;;;0.20;;
33579;SDS011;19909;43.644;-79.438;2022-07-21T05:52:34;0.35;;;0.30;;
33579;SDS011;19909;43.644;-79.438;2022-07-21T05:55:01;0.63;;;0.30;;
33579;SDS011;19909;43.644;-79.438;2022-07-21T05:57:31;0.47;;;0.40;;
33579;SDS011;19909;43.644;-79.438;2022-07-21T05:59:59;0.85;;;0.30;;
33579;SDS011;19909;43.644;-79.438;2022-07-21T06:02:25;0.43;;;0.40;;
33579;SDS011;19909;43.644;-79.438;2022-07-21T06:07:26;0.50;;;0.32;;
33579;SDS011;19909;43.644;-79.438;2022-07-21T06:09:52;0.50;;;0.30;;
33579;SDS011;19909;43.644;-79.438;2022-07-21T06:12:18;0.20;;;0.10;;
33579;SDS011;19909;43.644;-79.438;2022-07-21T06:14:45;0.80;;;0.40;;
33579;SDS011;19909;43.644;-79.438;2022-07-21T06:17:11;0.50;;;0.50;;
33579;SDS011;19909;43.644;-79.438;2022-07-21T06:19:37;0.40;;;0.30;;
33579;SDS011;19909;43.644;-79.438;2022-07-21T06:22:03;0.45;;;0.30;;
33579;SDS011;19909;43.644;-79.438;2022-07-21T06:24:30;0.65;;;0.45;;
33579;SDS011;19909;43.644;-79.438;2022-07-21T06:26:56;0.47;;;0.30;;
33579;SDS011;19909;43.644;-79.438;2022-07-21T06:29:23;0.50;;;0.32;;
33579;SDS011;19909;43.644;-79.438;2022-07-21T06:31:49;0.45;;;0.30;;
33579;SDS011;19909;43.644;-79.438;2022-07-21T06:34:15;0.40;;;0.38;;
33579;SDS011;19909;43.644;-79.438;2022-07-21T06:36:42;0.20;;;0.20;;
33579;SDS011;19909;43.644;-79.438;2022-07-21T06:39:08;0.30;;;0.30;;
33579;SDS011;19909;43.644;-79.438;2022-07-21T06:41:37;0.30;;;0.30;;
33579;SDS011;19909;43.644;-79.438;2022-07-21T06:44:04;0.90;;;0.40;;
33579;SDS011;19909;43.644;-79.438;2022-07-21T06:46:34;0.70;;;0.30;;
33579;SDS011;19909;43.644;-79.438;2022-07-21T06:49:01;0.40;;;0.30;;
33579;SDS011;19909;43.644;-79.438;2022-07-21T06:51:28;0.43;;;0.40;;
33579;SDS011;19909;43.644;-79.438;2022-07-21T06:56:22;0.17;;;0.15;;
33579;SDS011;19909;43.644;-79.438;2022-07-21T06:58:48;0.40;;;0.30;;
33579;SDS011;19909;43.644;-79.438;2022-07-21T07:01:15;0.20;;;0.20;;
33579;SDS011;19909;43.644;-79.438;2022-07-21T07:03:43;0.30;;;0.28;;
33579;SDS011;19909;43.644;-79.438;2022-07-21T07:06:12;0.30;;;0.20;;
33579;SDS011;19909;43.644;-79.438;2022-07-21T07:08:39;0.25;;;0.20;;
33579;SDS011;19909;43.644;-79.438;2022-07-21T07:11:05;0.20;;;0.20;;
33579;SDS011;19909;43.644;-79.438;2022-07-21T07:13:33;0.35;;;0.30;;
33579;SDS011;19909;43.644;-79.438;2022-07-21T07:15:59;0.20;;;0.20;;
33579;SDS011;19909;43.644;-79.438;2022-07-21T07:18:27;0.20;;;0.20;;
33579;SDS011;19909;43.644;-79.438;2022-07-21T07:20:53;0.75;;;0.30;;
33579;SDS011;19909;43.644;-79.438;2022-07-21T07:25:47;1.10;;;0.20;;
33579;SDS011;19909;43.644;-79.438;2022-07-21T07:28:13;0.35;;;0.20;;
33579;SDS011;19909;43.644;-79.438;2022-07-21T07:30:39;0.45;;;0.20;;
33579;SDS011;19909;43.644;-79.438;2022-07-21T07:33:06;0.35;;;0.30;;
33579;SDS011;19909;43.644;-79.438;2022-07-21T07:35:32;0.82;;;0.30;;
33579;SDS011;19909;43.644;-79.438;2022-07-21T07:37:58;0.32;;;0.30;;
33579;SDS011;19909;43.644;-79.438;2022-07-21T07:40:25;0.20;;;0.17;;
33579;SDS011;19909;43.644;-79.438;2022-07-21T07:42:51;0.40;;;0.30;;
33579;SDS011;19909;43.644;-79.438;2022-07-21T07:45:17;0.40;;;0.30;;
33579;SDS011;19909;43.644;-79.438;2022-07-21T07:47:44;0.43;;;0.32;;
33579;SDS011;19909;43.644;-79.438;2022-07-21T07:50:11;0.40;;;0.30;;
33579;SDS011;19909;43.644;-79.438;2022-07-21T07:52:39;0.55;;;0.30;;
33579;SDS011;19909;43.644;-79.438;2022-07-21T07:55:07;0.25;;;0.20;;
33579;SDS011;19909;43.644;-79.438;2022-07-21T07:57:36;0.73;;;0.30;;
33579;SDS011;19909;43.644;-79.438;2022-07-21T08:00:04;0.25;;;0.25;;
33579;SDS011;19909;43.644;-79.438;2022-07-21T08:02:33;0.40;;;0.25;;
33579;SDS011;19909;43.644;-79.438;2022-07-21T08:07:29;0.30;;;0.20;;
33579;SDS011;19909;43.644;-79.438;2022-07-21T08:09:56;0.30;;;0.20;;
33579;SDS011;19909;43.644;-79.438;2022-07-21T08:12:22;0.30;;;0.30;;
33579;SDS011;19909;43.644;-79.438;2022-07-21T08:14:48;0.40;;;0.40;;
33579;SDS011;19909;43.644;-79.438;2022-07-21T08:17:14;0.20;;;0.20;;
33579;SDS011;19909;43.644;-79.438;2022-07-21T08:19:42;0.32;;;0.30;;
33579;SDS011;19909;43.644;-79.438;2022-07-21T08:24:34;0.47;;;0.38;;
33579;SDS011;19909;43.644;-79.438;2022-07-21T08:27:00;0.40;;;0.25;;
33579;SDS011;19909;43.644;-79.438;2022-07-21T08:29:26;0.20;;;0.20;;
33579;SDS011;19909;43.644;-79.438;2022-07-21T08:31:53;0.32;;;0.20;;
33579;SDS011;19909;43.644;-79.438;2022-07-21T08:34:20;0.28;;;0.28;;
33579;SDS011;19909;43.644;-79.438;2022-07-21T08:36:46;0.20;;;0.20;;
33579;SDS011;19909;43.644;-79.438;2022-07-21T08:39:12;0.43;;;0.30;;
33579;SDS011;19909;43.644;-79.438;2022-07-21T08:41:39;0.30;;;0.30;;
33579;SDS011;19909;43.644;-79.438;2022-07-21T08:44:06;0.28;;;0.28;;
33579;SDS011;19909;43.644;-79.438;2022-07-21T08:46:36;0.30;;;0.30;;
33579;SDS011;19909;43.644;-79.438;2022-07-21T08:49:06;0.30;;;0.30;;
33579;SDS011;19909;43.644;-79.438;2022-07-21T08:51:34;0.52;;;0.30;;
33579;SDS011;19909;43.644;-79.438;2022-07-21T08:56:26;0.20;;;0.20;;
33579;SDS011;19909;43.644;-79.438;2022-07-21T08:58:53;0.30;;;0.28;;
33579;SDS011;19909;43.644;-79.438;2022-07-21T09:01:18;0.40;;;0.40;;
33579;SDS011;19909;43.644;-79.438;2022-07-21T09:03:53;0.50;;;0.30;;
33579;SDS011;19909;43.644;-79.438;2022-07-21T09:06:19;0.50;;;0.35;;
33579;SDS011;19909;43.644;-79.438;2022-07-21T09:08:46;0.30;;;0.20;;
33579;SDS011;19909;43.644;-79.438;2022-07-21T09:11:18;0.45;;;0.40;;
33579;SDS011;19909;43.644;-79.438;2022-07-21T09:13:48;0.28;;;0.25;;
33579;SDS011;19909;43.644;-79.438;2022-07-21T09:18:59;0.30;;;0.30;;
33579;SDS011;19909;43.644;-79.438;2022-07-21T09:21:25;0.20;;;0.20;;
33579;SDS011;19909;43.644;-79.438;2022-07-21T09:23:52;0.45;;;0.40;;
33579;SDS011;19909;43.644;-79.438;2022-07-21T09:26:30;0.95;;;0.30;;
33579;SDS011;19909;43.644;-79.438;2022-07-21T09:29:08;0.20;;;0.20;;
33579;SDS011;19909;43.644;-79.438;2022-07-21T09:31:35;0.40;;;0.30;;
33579;SDS011;19909;43.644;-79.438;2022-07-21T09:34:01;0.40;;;0.35;;
33579;SDS011;19909;43.644;-79.438;2022-07-21T09:36:28;0.30;;;0.30;;
33579;SDS011;19909;43.644;-79.438;2022-07-21T09:38:54;0.30;;;0.20;;
33579;SDS011;19909;43.644;-79.438;2022-07-21T09:41:22;0.32;;;0.30;;
33579;SDS011;19909;43.644;-79.438;2022-07-21T09:43:51;0.30;;;0.30;;
33579;SDS011;19909;43.644;-79.438;2022-07-21T09:46:23;0.30;;;0.30;;
33579;SDS011;19909;43.644;-79.438;2022-07-21T09:53:50;0.43;;;0.40;;
33579;SDS011;19909;43.644;-79.438;2022-07-21T09:56:23;0.80;;;0.30;;
33579;SDS011;19909;43.644;-79.438;2022-07-21T09:58:55;0.40;;;0.30;;
33579;SDS011;19909;43.644;-79.438;2022-07-21T10:01:22;0.32;;;0.32;;
33579;SDS011;19909;43.644;-79.438;2022-07-21T10:03:49;0.60;;;0.30;;
33579;SDS011;19909;43.644;-79.438;2022-07-21T10:06:17;0.40;;;0.30;;
33579;SDS011;19909;43.644;-79.438;2022-07-21T10:08:46;0.75;;;0.30;;
33579;SDS011;19909;43.644;-79.438;2022-07-21T10:11:15;0.40;;;0.40;;
33579;SDS011;19909;43.644;-79.438;2022-07-21T10:13:42;0.30;;;0.30;;
33579;SDS011;19909;43.644;-79.438;2022-07-21T10:16:10;0.40;;;0.40;;
33579;SDS011;19909;43.644;-79.438;2022-07-21T10:23:49;0.20;;;0.20;;
33579;SDS011;19909;43.644;-79.438;2022-07-21T10:26:18;0.28;;;0.20;;
33579;SDS011;19909;43.644;-79.438;2022-07-21T10:31:16;0.40;;;0.40;;
33579;SDS011;19909;43.644;-79.438;2022-07-21T10:41:39;0.63;;;0.28;;
33579;SDS011;19909;43.644;-79.438;2022-07-21T10:49:17;0.50;;;0.22;;
33579;SDS011;19909;43.644;-79.438;2022-07-21T10:51:46;0.20;;;0.20;;
33579;SDS011;19909;43.644;-79.438;2022-07-21T10:54:16;0.73;;;0.40;;
33579;SDS011;19909;43.644;-79.438;2022-07-21T10:56:43;0.32;;;0.17;;
33579;SDS011;19909;43.644;-79.438;2022-07-21T11:01:35;0.20;;;0.17;;
33579;SDS011;19909;43.644;-79.438;2022-07-21T11:06:35;0.20;;;0.20;;
33579;SDS011;19909;43.644;-79.438;2022-07-21T11:11:33;0.30;;;0.30;;
33579;SDS011;19909;43.644;-79.438;2022-07-21T11:19:07;0.52;;;0.30;;
33579;SDS011;19909;43.644;-79.438;2022-07-21T11:21:34;0.32;;;0.32;;
33579;SDS011;19909;43.644;-79.438;2022-07-21T11:24:01;0.40;;;0.40;;
33579;SDS011;19909;43.644;-79.438;2022-07-21T11:26:27;0.38;;;0.38;;
33579;SDS011;19909;43.644;-79.438;2022-07-21T11:31:23;0.68;;;0.40;;
33579;SDS011;19909;43.644;-79.438;2022-07-21T11:33:50;0.40;;;0.22;;
33579;SDS011;19909;43.644;-79.438;2022-07-21T11:36:49;0.20;;;0.20;;
33579;SDS011;19909;43.644;-79.438;2022-07-21T11:39:10;0.20;;;0.20;;
33579;SDS011;19909;43.644;-79.438;2022-07-21T11:41:38;0.32;;;0.30;;
33579;SDS011;19909;43.644;-79.438;2022-07-21T11:44:06;0.35;;;0.35;;
33579;SDS011;19909;43.644;-79.438;2022-07-21T11:51:57;0.22;;;0.20;;
33579;SDS011;19909;43.644;-79.438;2022-07-21T11:56:59;0.20;;;0.20;;
33579;SDS011;19909;43.644;-79.438;2022-07-21T11:59:27;0.43;;;0.32;;
33579;SDS011;19909;43.644;-79.438;2022-07-21T12:04:33;0.40;;;0.22;;
33579;SDS011;19909;43.644;-79.438;2022-07-21T12:07:03;0.32;;;0.28;;
33579;SDS011;19909;43.644;-79.438;2022-07-21T12:09:36;0.30;;;0.30;;
33579;SDS011;19909;43.644;-79.438;2022-07-21T12:12:02;0.13;;;0.13;;
33579;SDS011;19909;43.644;-79.438;2022-07-21T12:17:01;0.40;;;0.30;;
33579;SDS011;19909;43.644;-79.438;2022-07-21T12:19:27;0.20;;;0.20;;
33579;SDS011;19909;43.644;-79.438;2022-07-21T12:21:53;0.20;;;0.20;;
33579;SDS011;19909;43.644;-79.438;2022-07-21T12:24:20;0.20;;;0.20;;
33579;SDS011;19909;43.644;-79.438;2022-07-21T12:26:48;0.30;;;0.30;;
33579;SDS011;19909;43.644;-79.438;2022-07-21T12:29:27;0.43;;;0.40;;
33579;SDS011;19909;43.644;-79.438;2022-07-21T12:31:54;0.35;;;0.30;;
33579;SDS011;19909;43.644;-79.438;2022-07-21T12:34:21;0.25;;;0.20;;
33579;SDS011;19909;43.644;-79.438;2022-07-21T12:36:49;0.20;;;0.20;;
33579;SDS011;19909;43.644;-79.438;2022-07-21T12:41:47;0.75;;;0.30;;
33579;SDS011;19909;43.644;-79.438;2022-07-21T12:44:13;0.50;;;0.35;;
33579;SDS011;19909;43.644;-79.438;2022-07-21T12:46:40;0.25;;;0.25;;
33579;SDS011;19909;43.644;-79.438;2022-07-21T12:49:09;0.60;;;0.35;;
33579;SDS011;19909;43.644;-79.438;2022-07-21T12:51:36;0.63;;;0.30;;
33579;SDS011;19909;43.644;-79.438;2022-07-21T12:54:03;0.30;;;0.20;;
33579;SDS011;19909;43.644;-79.438;2022-07-21T12:56:30;0.20;;;0.20;;
33579;SDS011;19909;43.644;-79.438;2022-07-21T12:58:58;0.75;;;0.25;;
33579;SDS011;19909;43.644;-79.438;2022-07-21T13:01:26;0.40;;;0.30;;
33579;SDS011;19909;43.644;-79.438;2022-07-21T13:03:54;1.75;;;0.20;;
33579;SDS011;19909;43.644;-79.438;2022-07-21T13:06:19;0.20;;;0.20;;
33579;SDS011;19909;43.644;-79.438;2022-07-21T13:08:46;0.40;;;0.38;;
33579;SDS011;19909;43.644;-79.438;2022-07-21T13:11:15;0.20;;;0.20;;
33579;SDS011;19909;43.644;-79.438;2022-07-21T13:13:43;0.40;;;0.30;;
33579;SDS011;19909;43.644;-79.438;2022-07-21T13:16:11;0.30;;;0.25;;
33579;SDS011;19909;43.644;-79.438;2022-07-21T13:18:37;0.28;;;0.28;;
33579;SDS011;19909;43.644;-79.438;2022-07-21T13:21:04;0.30;;;0.30;;
33579;SDS011;19909;43.644;-79.438;2022-07-21T13:23:29;0.63;;;0.40;;
33579;SDS011;19909;43.644;-79.438;2022-07-21T13:25:56;0.30;;;0.30;;
33579;SDS011;19909;43.644;-79.438;2022-07-21T13:28:22;0.22;;;0.22;;
33579;SDS011;19909;43.644;-79.438;2022-07-21T13:30:48;0.17;;;0.17;;
33579;SDS011;19909;43.644;-79.438;2022-07-21T13:33:14;0.38;;;0.38;;
33579;SDS011;19909;43.644;-79.438;2022-07-21T13:35:41;0.30;;;0.30;;
33579;SDS011;19909;43.644;-79.438;2022-07-21T13:38:08;0.88;;;0.20;;
33579;SDS011;19909;43.644;-79.438;2022-07-21T13:40:35;0.63;;;0.60;;
33579;SDS011;19909;43.644;-79.438;2022-07-21T13:43:02;0.30;;;0.30;;
33579;SDS011;19909;43.644;-79.438;2022-07-21T13:45:29;0.40;;;0.40;;
33579;SDS011;19909;43.644;-79.438;2022-07-21T13:50:23;1.02;;;0.20;;
33579;SDS011;19909;43.644;-79.438;2022-07-21T13:52:49;0.35;;;0.30;;
33579;SDS011;19909;43.644;-79.438;2022-07-21T13:55:15;0.40;;;0.40;;
33579;SDS011;19909;43.644;-79.438;2022-07-21T13:57:42;0.40;;;0.38;;
33579;SDS011;19909;43.644;-79.438;2022-07-21T14:00:09;0.52;;;0.45;;
33579;SDS011;19909;43.644;-79.438;2022-07-21T14:02:36;0.40;;;0.40;;
33579;SDS011;19909;43.644;-79.438;2022-07-21T14:05:03;0.68;;;0.52;;
33579;SDS011;19909;43.644;-79.438;2022-07-21T14:07:30;0.85;;;0.40;;
33579;SDS011;19909;43.644;-79.438;2022-07-21T14:09:57;1.77;;;0.40;;
33579;SDS011;19909;43.644;-79.438;2022-07-21T14:12:23;0.60;;;0.50;;
33579;SDS011;19909;43.644;-79.438;2022-07-21T14:17:15;0.60;;;0.47;;
33579;SDS011;19909;43.644;-79.438;2022-07-21T14:19:42;0.50;;;0.40;;
33579;SDS011;19909;43.644;-79.438;2022-07-21T14:22:10;0.70;;;0.50;;
33579;SDS011;19909;43.644;-79.438;2022-07-21T14:24:37;0.60;;;0.50;;
33579;SDS011;19909;43.644;-79.438;2022-07-21T14:27:21;0.50;;;0.50;;
33579;SDS011;19909;43.644;-79.438;2022-07-21T14:29:48;0.60;;;0.60;;
33579;SDS011;19909;43.644;-79.438;2022-07-21T14:34:39;0.50;;;0.50;;
33579;SDS011;19909;43.644;-79.438;2022-07-21T14:37:05;0.38;;;0.38;;
33579;SDS011;19909;43.644;-79.438;2022-07-21T14:39:31;0.82;;;0.52;;
33579;SDS011;19909;43.644;-79.438;2022-07-21T14:41:57;1.08;;;0.30;;
33579;SDS011;19909;43.644;-79.438;2022-07-21T14:44:23;0.20;;;0.20;;
33579;SDS011;19909;43.644;-79.438;2022-07-21T14:46:49;0.40;;;0.30;;
33579;SDS011;19909;43.644;-79.438;2022-07-21T14:49:15;0.63;;;0.47;;
33579;SDS011;19909;43.644;-79.438;2022-07-21T14:51:42;0.47;;;0.40;;
33579;SDS011;19909;43.644;-79.438;2022-07-21T14:54:08;0.47;;;0.40;;
33579;SDS011;19909;43.644;-79.438;2022-07-21T14:56:34;0.40;;;0.40;;
33579;SDS011;19909;43.644;-79.438;2022-07-21T14:59:00;0.50;;;0.50;;
33579;SDS011;19909;43.644;-79.438;2022-07-21T15:01:27;0.50;;;0.45;;
33579;SDS011;19909;43.644;-79.438;2022-07-21T15:06:21;0.60;;;0.55;;
33579;SDS011;19909;43.644;-79.438;2022-07-21T15:08:47;0.52;;;0.40;;
33579;SDS011;19909;43.644;-79.438;2022-07-21T15:11:14;0.63;;;0.50;;
33579;SDS011;19909;43.644;-79.438;2022-07-21T15:18:38;0.40;;;0.40;;
33579;SDS011;19909;43.644;-79.438;2022-07-21T15:21:05;1.00;;;0.65;;
33579;SDS011;19909;43.644;-79.438;2022-07-21T15:23:35;0.35;;;0.35;;
33579;SDS011;19909;43.644;-79.438;2022-07-21T15:28:29;1.08;;;0.55;;
33579;SDS011;19909;43.644;-79.438;2022-07-21T15:30:55;0.63;;;0.57;;
33579;SDS011;19909;43.644;-79.438;2022-07-21T15:33:22;0.30;;;0.30;;
33579;SDS011;19909;43.644;-79.438;2022-07-21T15:35:48;0.60;;;0.50;;
33579;SDS011;19909;43.644;-79.438;2022-07-21T15:40:46;0.40;;;0.40;;
33579;SDS011;19909;43.644;-79.438;2022-07-21T15:43:13;3.47;;;2.03;;
33579;SDS011;19909;43.644;-79.438;2022-07-21T15:45:40;17.40;;;14.80;;
33579;SDS011;19909;43.644;-79.438;2022-07-21T15:48:06;36.03;;;31.45;;
33579;SDS011;19909;43.644;-79.438;2022-07-21T15:50:33;45.50;;;39.92;;
33579;SDS011;19909;43.644;-79.438;2022-07-21T15:52:59;53.53;;;43.72;;
33579;SDS011;19909;43.644;-79.438;2022-07-21T15:55:26;47.40;;;41.17;;
33579;SDS011;19909;43.644;-79.438;2022-07-21T15:57:52;46.35;;;39.03;;
33579;SDS011;19909;43.644;-79.438;2022-07-21T16:00:19;46.88;;;39.75;;
33579;SDS011;19909;43.644;-79.438;2022-07-21T16:02:46;38.63;;;34.42;;
33579;SDS011;19909;43.644;-79.438;2022-07-21T16:07:40;33.15;;;29.58;;
33579;SDS011;19909;43.644;-79.438;2022-07-21T16:10:08;31.70;;;27.85;;
33579;SDS011;19909;43.644;-79.438;2022-07-21T16:12:36;28.65;;;25.65;;
33579;SDS011;19909;43.644;-79.438;2022-07-21T16:15:03;25.83;;;23.05;;
33579;SDS011;19909;43.644;-79.438;2022-07-21T16:17:30;23.92;;;21.42;;